Main page
METAR-TAF:

METAR-TAF

Airports :

Erfurt–Weimar Airport

Erfurt, Germany

latitude: 50-59N, longitude: 010-58E, elevation: 315 m

Current weather observation

The report was made 23 minutes ago, at 19:20 UTC
Wind 2 kt from the North
Temperature 18°C
Humidity 59%
Pressure 1014 hPa
Visibility 10 km or more
no clouds below 1500 m and no cumulonimbus

METAR: EDDE 221920Z 01002KT CAVOK 18/10 Q1014 NOSIG

Time: 21:43 (19:43 UTC)

Forecast

The report was made 2 hours and 43 minutes ago, at 17:00 UTC
Forecast valid from 22 at 18 UTC to 23 at 18 UTC
Wind 6 kt from the East/Northeast
Visibility 10 km or more
no clouds below 1500 m and no cumulonimbus
Becoming
from 23 at 08 UTC to 23 at 10 UTC
Wind 11 kt from the Northeast
Becoming
from 23 at 16 UTC to 23 at 18 UTC
Wind 6 kt from the Northeast

TAF: EDDE 221700Z 2218/2318 07006KT CAVOK BECMG 2308/2310 05011KT BECMG 2316/2318 05006KT

Weather observations and forecasts of more than 4000 airports (METAR and TAF reports).

The available stations are represented by yellow and red dots on the map.

Hover mouse over dot to see the name of the station.

Then click to see weather observations and forecasts.

To change the map : click on the green buttons with a black cross to zoom in, on the green button with a dash to zoom out, or on the green arrows for adjacent maps.


METAR-TAF: